Time;durP1;ratioP1;P1;durP2;ratioP2;P2;SDS_P1;SDS_P2;PMS_P1;PMS_P2;Temp;Humidity;BMP_temperature;BMP_pressure;BME280_temperature;BME280_humidity;BME280_pressure;Samples;Min_cycle;Max_cycle;Signal;HPM_P1;HPM_P2
2022/07/31 00:01:39;;;;;;;6.50;5.15;;;;;;;17.45;100.00;97969.88;5013646;28;20033;-75
2022/07/31 00:04:04;;;;;;;9.18;5.43;;;;;;;17.38;100.00;97964.91;5013464;28;20018;-74
2022/07/31 00:06:30;;;;;;;7.63;5.78;;;;;;;17.40;100.00;97967.31;5013256;28;20038;-74
2022/07/31 00:08:55;;;;;;;6.90;5.05;;;;;;;17.38;100.00;97969.63;5013662;28;20026;-74
2022/07/31 00:11:20;;;;;;;7.32;5.90;;;;;;;17.32;100.00;97960.72;5013413;28;20022;-74
2022/07/31 00:13:46;;;;;;;7.25;5.82;;;;;;;17.37;100.00;97970.78;4995699;28;20033;-72
2022/07/31 00:16:11;;;;;;;7.15;5.85;;;;;;;17.36;100.00;97966.38;5013230;28;20033;-73
2022/07/31 00:18:36;;;;;;;6.53;5.40;;;;;;;17.43;100.00;97966.66;5016315;28;20034;-74
2022/07/31 00:21:02;;;;;;;6.22;5.15;;;;;;;17.36;100.00;97978.25;5019943;28;20382;-74
2022/07/31 00:23:28;;;;;;;8.00;5.38;;;;;;;17.38;100.00;97980.69;5013341;28;20072;-75
2022/07/31 00:25:53;;;;;;;7.32;5.72;;;;;;;17.40;100.00;97989.44;5013303;28;20030;-74
2022/07/31 00:28:19;;;;;;;9.73;5.05;;;;;;;17.31;100.00;97980.44;5012986;28;20037;-74
2022/07/31 00:30:44;;;;;;;7.75;5.15;;;;;;;17.21;100.00;97981.63;5013156;28;20542;-74
2022/07/31 00:33:09;;;;;;;9.20;5.70;;;;;;;17.09;100.00;97990.69;5013020;28;20383;-74
2022/07/31 00:35:35;;;;;;;8.65;6.00;;;;;;;16.95;100.00;97986.53;5012837;28;20033;-74
2022/07/31 00:38:00;;;;;;;11.05;5.80;;;;;;;16.96;100.00;97988.19;5012865;28;20026;-74
2022/07/31 00:40:26;;;;;;;8.80;6.13;;;;;;;17.04;100.00;97990.88;5012841;28;20054;-74
2022/07/31 00:42:52;;;;;;;9.23;6.57;;;;;;;17.18;100.00;97992.56;5012733;28;20050;-74
2022/07/31 00:45:17;;;;;;;11.95;6.38;;;;;;;17.18;100.00;97989.78;5012910;28;20050;-74
2022/07/31 00:47:43;;;;;;;8.10;6.78;;;;;;;17.12;100.00;97998.31;5012670;28;20088;-74
2022/07/31 00:50:09;;;;;;;7.63;5.80;;;;;;;17.10;100.00;97992.28;5012544;28;20041;-74
2022/07/31 00:52:35;;;;;;;12.52;6.35;;;;;;;17.05;100.00;97994.44;5012519;28;20030;-75
2022/07/31 00:55:00;;;;;;;8.25;5.63;;;;;;;17.10;100.00;97994.25;5012387;28;20116;-75
2022/07/31 00:57:26;;;;;;;7.50;5.82;;;;;;;17.15;100.00;97996.81;5012269;28;20041;-75
2022/07/31 00:59:51;;;;;;;6.47;5.38;;;;;;;17.09;100.00;97992.63;5012421;28;20077;-75
2022/07/31 01:02:16;;;;;;;7.80;5.80;;;;;;;17.09;100.00;97989.88;5012436;28;20364;-74
2022/07/31 01:04:42;;;;;;;8.75;5.70;;;;;;;16.92;100.00;97985.25;5012095;28;20410;-73
2022/07/31 01:07:07;;;;;;;7.47;5.53;;;;;;;16.88;100.00;97973.28;5012218;28;20041;-74
2022/07/31 01:09:33;;;;;;;7.00;5.80;;;;;;;16.97;100.00;97976.78;5012337;28;20057;-74
2022/07/31 01:12:21;;;;;;;7.95;5.75;;;;;;;16.99;100.00;97977.25;5012298;28;20042;-74
2022/07/31 01:14:51;;;;;;;7.38;5.63;;;;;;;16.97;100.00;97982.31;5012164;28;20022;-74
2022/07/31 01:17:20;;;;;;;6.97;5.80;;;;;;;16.86;100.00;97986.63;5011812;28;20121;-75
2022/07/31 01:19:47;;;;;;;9.23;5.60;;;;;;;16.85;100.00;97973.94;5012050;28;20038;-75
2022/07/31 01:22:15;;;;;;;7.97;5.28;;;;;;;17.03;100.00;97972.69;5012100;28;20061;-74
2022/07/31 01:25:02;;;;;;;7.88;5.47;;;;;;;16.90;100.00;97964.66;5012120;28;20053;-75
2022/07/31 01:28:15;;;;;;;6.03;5.35;;;;;;;16.86;100.00;97974.75;5011880;28;20084;-75
2022/07/31 01:30:51;;;;;;;7.65;5.63;;;;;;;16.80;100.00;97982.44;4941695;28;20054;-75
2022/07/31 01:33:26;;;;;;;8.18;5.18;;;;;;;16.85;100.00;97987.75;5012021;28;20057;-74
2022/07/31 01:36:05;;;;;;;8.32;5.53;;;;;;;16.89;100.00;97974.88;4994048;28;20026;-74
2022/07/31 01:38:35;;;;;;;9.77;5.45;;;;;;;16.97;100.00;97976.78;5011572;28;20127;-74
2022/07/31 01:41:06;;;;;;;7.68;5.88;;;;;;;16.91;100.00;97982.84;5011807;28;20088;-74
2022/07/31 01:43:36;;;;;;;8.15;6.70;;;;;;;16.75;100.00;97979.88;5011623;28;20044;-74
2022/07/31 01:46:04;;;;;;;7.68;5.90;;;;;;;16.66;100.00;97973.59;5011822;28;20112;-74
2022/07/31 01:48:32;;;;;;;7.15;5.97;;;;;;;16.70;100.00;97985.56;5011318;28;20030;-74
2022/07/31 01:51:00;;;;;;;7.13;5.88;;;;;;;16.42;100.00;97987.16;5011713;28;20031;-74
2022/07/31 01:53:29;;;;;;;7.47;6.05;;;;;;;16.45;100.00;97983.72;5011681;28;20026;-74
2022/07/31 01:55:57;;;;;;;7.20;5.93;;;;;;;16.52;100.00;97990.38;5011230;28;20034;-75
2022/07/31 01:58:25;;;;;;;7.63;5.40;;;;;;;16.44;100.00;97982.13;5011546;28;20438;-74
2022/07/31 02:00:54;;;;;;;10.57;6.18;;;;;;;16.37;100.00;97971.59;5011270;28;20030;-74
2022/07/31 02:03:20;;;;;;;7.28;5.78;;;;;;;16.44;100.00;97973.84;5011439;28;20080;-73
2022/07/31 02:05:47;;;;;;;6.63;5.93;;;;;;;16.35;100.00;97967.56;5010717;28;20061;-73
2022/07/31 02:08:15;;;;;;;8.43;6.05;;;;;;;16.45;100.00;97983.72;5011324;28;20079;-74
2022/07/31 02:10:44;;;;;;;6.95;5.68;;;;;;;16.62;100.00;97982.88;5011394;28;20028;-74
2022/07/31 02:13:11;;;;;;;8.50;6.40;;;;;;;16.75;100.00;97985.41;5011291;28;20064;-74
2022/07/31 02:15:38;;;;;;;7.57;5.70;;;;;;;16.87;100.00;97982.72;5011041;28;20036;-74
2022/07/31 02:18:05;;;;;;;6.53;5.18;;;;;;;16.91;100.00;97989.19;4993566;28;20486;-74
2022/07/31 02:20:32;;;;;;;12.50;5.93;;;;;;;16.87;100.00;97973.63;5011258;28;20029;-74
2022/07/31 02:22:57;;;;;;;8.90;5.65;;;;;;;16.85;100.00;97982.22;5011282;28;20474;-74
2022/07/31 02:25:24;;;;;;;7.63;5.85;;;;;;;16.86;100.00;97985.81;5010862;28;20037;-75
2022/07/31 02:27:51;;;;;;;10.23;5.80;;;;;;;16.91;100.00;97982.84;5010920;28;20030;-74
2022/07/31 02:30:17;;;;;;;7.38;6.00;;;;;;;16.95;100.00;97973.53;5010666;28;20088;-75
2022/07/31 02:32:47;;;;;;;10.27;6.65;;;;;;;16.99;100.00;97968.97;5011525;28;20391;-74
2022/07/31 02:35:15;;;;;;;7.88;6.28;;;;;;;16.99;100.00;97966.22;5019067;28;20014;-75
2022/07/31 02:37:43;;;;;;;9.55;5.88;;;;;;;16.91;100.00;97969.84;5016993;28;20117;-74
2022/07/31 02:40:11;;;;;;;7.85;6.38;;;;;;;16.97;100.00;97965.75;5010718;28;20054;-74
2022/07/31 02:42:39;;;;;;;8.15;6.50;;;;;;;17.01;100.00;97963.91;5010863;28;20048;-74
2022/07/31 02:45:09;;;;;;;7.30;5.93;;;;;;;16.98;100.00;97948.00;5010775;28;20429;-74
2022/07/31 02:47:36;;;;;;;10.77;6.13;;;;;;;16.97;100.00;97940.88;5010793;28;20441;-75
2022/07/31 02:50:03;;;;;;;9.20;6.32;;;;;;;16.98;100.00;97945.22;4993035;28;20502;-74
2022/07/31 02:52:29;;;;;;;8.48;6.30;;;;;;;17.08;100.00;97958.66;5010766;28;20081;-74
2022/07/31 02:54:56;;;;;;;9.10;6.55;;;;;;;17.01;100.00;97947.31;5010821;28;20508;-74
2022/07/31 02:57:22;;;;;;;6.32;5.32;;;;;;;16.89;100.00;97940.91;5010433;28;20123;-75
2022/07/31 02:59:47;;;;;;;7.60;5.68;;;;;;;16.67;100.00;97944.00;5010668;28;20471;-75
2022/07/31 03:02:13;;;;;;;16.88;6.00;;;;;;;16.76;100.00;97953.84;5011012;28;20026;-74
2022/07/31 03:04:38;;;;;;;8.60;5.65;;;;;;;16.72;100.00;97949.34;5010643;28;20427;-73
2022/07/31 03:07:03;;;;;;;12.70;5.60;;;;;;;16.74;100.00;97947.84;5010673;28;20033;-74
2022/07/31 03:09:29;;;;;;;7.07;5.80;;;;;;;16.68;100.00;97959.44;5010583;28;20117;-73
2022/07/31 03:11:56;;;;;;;9.65;5.95;;;;;;;16.69;100.00;97948.06;5010409;28;20033;-74
2022/07/31 03:14:22;;;;;;;7.05;5.13;;;;;;;16.68;100.00;97954.72;5010459;28;20026;-75
2022/07/31 03:16:49;;;;;;;7.03;5.35;;;;;;;16.55;100.00;97953.00;5011097;28;20029;-75
2022/07/31 03:19:15;;;;;;;6.60;5.50;;;;;;;16.49;100.00;97949.63;5013791;28;20493;-74
2022/07/31 03:21:41;;;;;;;7.70;5.72;;;;;;;16.43;100.00;97961.19;5014331;28;20033;-75
2022/07/31 03:24:07;;;;;;;7.57;5.57;;;;;;;16.48;100.00;97970.06;5014168;28;20037;-76
2022/07/31 03:26:34;;;;;;;6.70;5.55;;;;;;;16.44;100.00;97957.28;5013941;28;20030;-73
2022/07/31 03:29:01;;;;;;;7.00;6.13;;;;;;;16.35;100.00;97959.28;5014412;28;20084;-73
2022/07/31 03:31:26;;;;;;;6.13;5.32;;;;;;;16.34;100.00;97968.69;5014278;28;20104;-74
2022/07/31 03:33:52;;;;;;;6.47;5.78;;;;;;;16.41;100.00;97974.53;5014124;28;20023;-73
2022/07/31 03:36:17;;;;;;;9.50;5.68;;;;;;;16.41;100.00;97977.28;5014211;28;20034;-78
2022/07/31 03:38:42;;;;;;;9.38;6.28;;;;;;;16.42;100.00;97959.56;5018238;28;20108;-74
2022/07/31 03:41:08;;;;;;;6.57;5.25;;;;;;;16.36;100.00;97966.41;5019517;28;20108;-74
2022/07/31 03:43:34;;;;;;;6.65;5.95;;;;;;;16.33;100.00;97964.31;5019416;28;20034;-74
2022/07/31 03:46:01;;;;;;;7.53;5.95;;;;;;;16.45;100.00;97964.41;5015050;28;20034;-74
2022/07/31 03:48:28;;;;;;;6.70;5.47;;;;;;;16.29;100.00;97966.13;5014273;28;20429;-74
2022/07/31 03:50:55;;;;;;;7.90;6.32;;;;;;;16.20;100.00;97963.38;5014949;28;20505;-74
2022/07/31 03:53:21;;;;;;;9.70;6.80;;;;;;;16.19;100.00;97969.25;5013646;28;20030;-74
2022/07/31 03:55:48;;;;;;;7.90;6.25;;;;;;;16.22;100.00;97960.31;5013497;28;20026;-74
2022/07/31 03:58:14;;;;;;;7.72;5.78;;;;;;;16.32;100.00;97976.50;5013740;28;20118;-74
2022/07/31 04:00:42;;;;;;;7.43;6.35;;;;;;;16.39;100.00;97985.06;5013718;28;20148;-74
2022/07/31 04:03:10;;;;;;;10.45;7.85;;;;;;;16.47;100.00;97982.28;5013539;28;20041;-74
2022/07/31 04:05:38;;;;;;;10.60;7.50;;;;;;;16.33;100.00;97978.09;5013511;28;20026;-75
2022/07/31 04:08:04;;;;;;;9.90;7.07;;;;;;;16.26;100.00;97975.88;5013298;28;20083;-74
2022/07/31 04:10:30;;;;;;;11.15;7.30;;;;;;;16.40;100.00;97981.97;5013289;28;20041;-74
2022/07/31 04:12:56;;;;;;;16.23;7.32;;;;;;;16.46;100.00;97985.38;5013575;28;20026;-74
2022/07/31 04:15:22;;;;;;;8.90;7.03;;;;;;;16.26;100.00;97972.28;5013228;28;20111;-74
2022/07/31 04:17:47;;;;;;;8.82;7.28;;;;;;;16.37;100.00;97981.84;5013349;28;20061;-74
2022/07/31 04:20:13;;;;;;;9.70;7.53;;;;;;;16.47;100.00;97984.22;5013309;28;20098;-74
2022/07/31 04:22:38;;;;;;;10.15;7.30;;;;;;;16.41;100.00;97974.53;5013190;28;20037;-75
2022/07/31 04:25:04;;;;;;;9.15;7.57;;;;;;;16.68;100.00;97992.59;5013126;28;20714;-74
2022/07/31 04:27:30;;;;;;;9.40;7.30;;;;;;;16.80;100.00;97971.38;5013185;28;20029;-75
2022/07/31 04:29:56;;;;;;;9.90;6.68;;;;;;;16.84;100.00;97979.81;4994910;28;20026;-74
2022/07/31 04:32:22;;;;;;;8.18;6.30;;;;;;;16.98;100.00;97994.16;5013032;28;20025;-74
2022/07/31 04:34:48;;;;;;;11.52;7.72;;;;;;;16.84;100.00;97994.44;5013177;28;20022;-74
2022/07/31 04:37:14;;;;;;;13.00;9.75;;;;;;;16.69;100.00;97995.03;5012745;28;20040;-75
2022/07/31 04:39:39;;;;;;;11.57;9.23;;;;;;;16.67;100.00;97994.53;5012631;28;20053;-74
2022/07/31 04:42:05;;;;;;;18.20;10.75;;;;;;;16.72;100.00;98008.16;5012868;28;20478;-74
2022/07/31 04:44:30;;;;;;;23.38;13.00;;;;;;;16.64;100.00;97989.66;5012746;28;20383;-74
2022/07/31 04:47:00;;;;;;;26.77;14.20;;;;;;;16.68;100.00;97987.88;5012937;28;20057;-74
2022/07/31 04:49:25;;;;;;;23.30;14.95;;;;;;;16.64;100.00;97988.84;5015864;28;20030;-73
2022/07/31 04:51:51;;;;;;;21.10;13.88;;;;;;;16.65;100.00;98007.88;5018593;28;20034;-75
2022/07/31 04:54:17;;;;;;;20.25;13.05;;;;;;;16.70;100.00;98002.16;5012617;28;20034;-74
2022/07/31 04:56:42;;;;;;;24.30;14.23;;;;;;;16.83;100.00;98011.34;5012310;28;20034;-73
2022/07/31 04:59:13;;;;;;;21.45;13.48;;;;;;;16.99;100.00;98013.19;5012465;28;20025;-74
2022/07/31 05:01:39;;;;;;;18.17;13.18;;;;;;;16.93;100.00;98011.75;5012331;28;20021;-74
2022/07/31 05:04:06;;;;;;;19.60;13.20;;;;;;;16.91;100.00;98005.78;5012497;28;20026;-74
2022/07/31 05:06:48;;;;;;;21.92;12.18;;;;;;;16.69;100.00;97997.78;5012405;28;20025;-74
2022/07/31 05:09:16;;;;;;;17.80;11.90;;;;;;;16.80;100.00;97998.19;5012656;28;20061;-74
2022/07/31 05:11:42;;;;;;;19.67;12.40;;;;;;;16.97;100.00;98011.91;5012335;28;20033;-74
2022/07/31 05:14:09;;;;;;;21.88;13.65;;;;;;;17.16;100.00;98016.97;5012554;28;20026;-74
2022/07/31 05:16:35;;;;;;;16.35;12.38;;;;;;;17.28;100.00;98011.50;5012336;28;20464;-74
2022/07/31 05:19:02;;;;;;;17.67;12.52;;;;;;;17.38;100.00;98024.94;5011951;28;20110;-74
2022/07/31 05:21:29;;;;;;;16.73;11.90;;;;;;;17.47;100.00;98025.69;5012114;28;20064;-74
2022/07/31 05:23:56;;;;;;;14.80;10.93;;;;;;;17.64;100.00;98012.53;5012065;28;20109;-74
2022/07/31 05:26:22;;;;;;;18.02;11.27;;;;;;;17.72;100.00;98021.91;5012219;28;20041;-74
2022/07/31 05:28:49;;;;;;;18.10;11.10;;;;;;;17.67;100.00;98021.31;5011816;28;20026;-73
2022/07/31 05:31:16;;;;;;;16.70;10.82;;;;;;;17.81;100.00;98028.16;5011848;28;20037;-74
2022/07/31 05:33:42;;;;;;;16.98;11.10;;;;;;;17.84;100.00;98027.47;5011708;28;20030;-73
2022/07/31 05:36:07;;;;;;;20.10;11.85;;;;;;;17.78;100.00;98026.06;5011831;28;20030;-73
2022/07/31 05:38:33;;;;;;;19.83;13.48;;;;;;;17.68;100.00;98029.25;5011648;28;20038;-73
2022/07/31 05:40:59;;;;;;;22.10;12.60;;;;;;;17.72;100.00;98030.19;5010873;28;20032;-74
2022/07/31 05:43:24;;;;;;;18.45;10.82;;;;;;;17.85;100.00;98040.16;5011621;28;20445;-74
2022/07/31 05:45:49;;;;;;;20.13;12.98;;;;;;;17.97;100.00;98026.38;5011398;28;20033;-75
2022/07/31 05:48:15;;;;;;;15.48;11.23;;;;;;;18.08;100.00;98030.31;5011400;28;20029;-74
2022/07/31 05:50:45;;;;;;;21.38;13.15;;;;;;;18.14;100.00;98022.59;5011573;28;20398;-74
2022/07/31 05:53:13;;;;;;;19.58;13.00;;;;;;;18.05;100.00;98028.22;5011618;28;20065;-73
2022/07/31 05:55:43;;;;;;;20.40;11.90;;;;;;;17.95;100.00;98031.41;5011506;28;20512;-74
2022/07/31 05:58:08;;;;;;;20.75;11.35;;;;;;;17.80;100.00;98031.25;5011643;28;20393;-73
2022/07/31 06:00:34;;;;;;;15.50;11.32;;;;;;;17.72;100.00;98040.47;5011356;28;20053;-74
2022/07/31 06:03:00;;;;;;;18.15;11.25;;;;;;;17.92;100.00;98037.63;5011510;28;20029;-74
2022/07/31 06:05:26;;;;;;;15.25;11.27;;;;;;;18.07;100.00;98031.44;5011523;28;20032;-74
2022/07/31 06:07:52;;;;;;;25.40;14.13;;;;;;;18.38;100.00;98035.69;5011432;28;20504;-73
2022/07/31 06:10:17;;;;;;;17.83;11.80;;;;;;;18.66;100.00;98042.22;5011435;28;20029;-74
2022/07/31 06:12:43;;;;;;;19.15;12.40;;;;;;;18.75;100.00;98050.41;5011269;28;20073;-73
2022/07/31 06:15:09;;;;;;;19.83;12.82;;;;;;;18.98;100.00;98052.34;5011106;28;20374;-73
2022/07/31 06:17:37;;;;;;;19.77;12.90;;;;;;;18.83;100.00;98046.69;5010826;28;20021;-74
2022/07/31 06:20:03;;;;;;;19.85;13.15;;;;;;;18.31;100.00;98046.50;5011238;28;20398;-73
2022/07/31 06:22:28;;;;;;;20.00;12.95;;;;;;;18.74;100.00;98055.13;4993517;28;20026;-74
2022/07/31 06:24:54;;;;;;;20.08;13.20;;;;;;;19.36;100.00;98051.16;5011310;28;20040;-73
2022/07/31 06:27:19;;;;;;;19.45;12.25;;;;;;;19.68;100.00;98044.59;5010889;28;20610;-76
2022/07/31 06:29:44;;;;;;;18.50;12.43;;;;;;;20.47;100.00;98052.00;5010970;28;20037;-75
2022/07/31 06:32:10;;;;;;;18.58;12.00;;;;;;;21.04;100.00;98048.66;5010807;28;20029;-75
2022/07/31 06:34:35;;;;;;;14.73;9.73;;;;;;;20.84;100.00;98041.41;5011087;28;20056;-74
2022/07/31 06:37:00;;;;;;;15.15;10.05;;;;;;;20.75;100.00;98030.47;5010947;28;20029;-74
2022/07/31 06:39:25;;;;;;;15.25;10.07;;;;;;;20.48;100.00;98036.94;5010892;28;20136;-74
2022/07/31 06:41:52;;;;;;;14.65;9.20;;;;;;;21.13;100.00;98043.72;5011076;28;20040;-74
2022/07/31 06:44:19;;;;;;;13.93;9.02;;;;;;;21.73;100.00;98044.25;5010982;28;20486;-74
2022/07/31 06:46:45;;;;;;;17.52;8.20;;;;;;;21.54;100.00;98041.44;5014744;28;20069;-75
2022/07/31 06:49:11;;;;;;;12.48;8.77;;;;;;;21.58;100.00;98037.56;5014903;28;20486;-74
2022/07/31 06:51:37;;;;;;;13.90;7.90;;;;;;;21.25;100.00;98032.47;5011229;28;20024;-75
2022/07/31 06:54:04;;;;;;;8.65;7.05;;;;;;;20.87;100.00;98015.66;5014771;28;20097;-75
2022/07/31 06:56:32;;;;;;;9.15;7.13;;;;;;;20.42;100.00;98018.91;4997152;28;20374;-74
2022/07/31 06:58:58;;;;;;;9.63;7.53;;;;;;;20.64;100.00;98014.69;4996907;28;20053;-76
2022/07/31 07:01:24;;;;;;;10.02;6.50;;;;;;;20.79;100.00;98008.31;5014667;28;20061;-75
2022/07/31 07:03:49;;;;;;;10.43;6.20;;;;;;;20.69;100.00;98012.44;5014807;28;20026;-75
2022/07/31 07:06:14;;;;;;;8.20;6.00;;;;;;;20.88;100.00;98014.47;5014409;28;20475;-74
2022/07/31 07:08:40;;;;;;;10.68;6.72;;;;;;;21.18;100.00;98007.25;5014420;28;20105;-74
2022/07/31 07:11:05;;;;;;;8.70;6.38;;;;;;;20.97;100.00;97994.81;5014554;28;20026;-74
2022/07/31 07:13:31;;;;;;;13.27;7.07;;;;;;;21.04;100.00;97995.78;5014303;28;20022;-75
2022/07/31 07:15:56;;;;;;;9.48;5.75;;;;;;;21.25;100.00;98009.41;5014492;28;20038;-75
2022/07/31 07:18:22;;;;;;;8.98;5.60;;;;;;;21.27;100.00;98016.22;5014379;28;20109;-74
2022/07/31 07:20:48;;;;;;;8.50;5.70;;;;;;;21.50;100.00;97998.81;5014338;28;20556;-76
2022/07/31 07:23:13;;;;;;;8.18;5.18;;;;;;;21.64;100.00;98005.50;5014363;28;20038;-74
2022/07/31 07:25:39;;;;;;;7.20;5.28;;;;;;;21.72;100.00;98006.44;5014426;28;20455;-74
2022/07/31 07:28:05;;;;;;;10.35;5.22;;;;;;;22.04;100.00;98001.50;5014179;28;20749;-75
2022/07/31 07:30:31;;;;;;;9.07;4.18;;;;;;;21.89;100.00;98000.44;5014154;28;20062;-74
2022/07/31 07:32:56;;;;;;;5.88;4.47;;;;;;;22.47;98.37;97980.78;5014166;28;20032;-74
2022/07/31 07:35:21;;;;;;;6.43;4.18;;;;;;;22.40;96.71;97979.47;5013930;28;20029;-75
2022/07/31 07:37:47;;;;;;;6.80;4.80;;;;;;;23.72;88.09;97987.84;5013720;28;20034;-75
2022/07/31 07:40:13;;;;;;;4.80;4.00;;;;;;;23.56;88.87;97987.25;5013630;28;20126;-74
2022/07/31 07:42:40;;;;;;;5.82;3.90;;;;;;;22.58;95.33;97981.78;5016413;28;20030;-75
2022/07/31 07:45:06;;;;;;;6.22;4.32;;;;;;;22.85;93.75;97981.44;5017073;28;20104;-75
2022/07/31 07:47:31;;;;;;;11.75;8.45;;;;;;;23.02;92.58;97985.69;5018404;28;20057;-75
2022/07/31 07:49:57;;;;;;;4.80;4.03;;;;;;;23.05;92.43;97986.94;5015633;28;20018;-75
2022/07/31 07:52:22;;;;;;;5.43;3.80;;;;;;;22.96;93.14;97984.41;5013718;28;20152;-75
2022/07/31 07:54:48;;;;;;;4.40;2.97;;;;;;;23.26;90.53;97982.44;5013721;28;20022;-74
2022/07/31 07:57:19;;;;;;;5.90;4.03;;;;;;;24.48;81.92;97975.91;5013494;28;20030;-73
2022/07/31 07:59:47;;;;;;;28.88;17.58;;;;;;;25.26;77.72;97984.09;5013515;28;20057;-75
2022/07/31 08:02:13;;;;;;;6.63;3.75;;;;;;;24.98;79.30;97981.94;5013580;28;20061;-74
2022/07/31 08:04:38;;;;;;;4.68;3.70;;;;;;;25.52;77.11;97990.28;5012311;28;20025;-74
2022/07/31 08:07:03;;;;;;;4.03;3.10;;;;;;;25.90;75.18;97990.84;5013601;28;20418;-75
2022/07/31 08:09:29;;;;;;;5.43;3.30;;;;;;;25.95;72.99;97980.03;5013329;28;20029;-73
2022/07/31 08:11:55;;;;;;;23.85;13.93;;;;;;;26.91;68.90;97968.97;5013229;28;20033;-74
2022/07/31 08:14:20;;;;;;;4.25;3.22;;;;;;;28.10;61.85;97972.63;5013212;28;20025;-74
2022/07/31 08:16:45;;;;;;;4.13;2.97;;;;;;;28.16;60.93;97971.78;5013168;28;20478;-75
2022/07/31 08:19:11;;;;;;;3.78;3.08;;;;;;;29.31;56.16;97973.31;5013028;28;20045;-74
2022/07/31 08:21:38;;;;;;;4.43;2.72;;;;;;;31.34;50.89;97961.47;5013057;28;20535;-74
2022/07/31 08:24:04;;;;;;;4.95;3.28;;;;;;;32.45;45.87;97967.25;5012885;28;20026;-75
2022/07/31 08:27:22;;;;;;;4.05;2.78;;;;;;;34.47;38.82;97971.06;5012744;28;20033;-74
2022/07/31 08:29:14;;;;;;;6.03;3.40;;;;;;;34.62;37.74;97975.06;5012578;28;20446;-76
2022/07/31 08:31:40;;;;;;;3.78;2.90;;;;;;;32.16;41.88;97952.94;5012856;28;20049;-74
2022/07/31 08:34:06;;;;;;;3.38;2.75;;;;;;;34.62;37.05;97968.56;5012678;28;20398;-74
2022/07/31 08:36:31;;;;;;;4.93;3.03;;;;;;;34.71;36.08;97960.94;5012458;28;20026;-74
2022/07/31 08:38:57;;;;;;;3.38;2.90;;;;;;;32.19;40.75;97948.44;5012351;28;20473;-74
2022/07/31 08:41:23;;;;;;;3.30;2.92;;;;;;;34.25;37.41;97951.03;5012580;28;20083;-75
2022/07/31 08:43:48;;;;;;;5.72;3.17;;;;;;;32.53;40.28;97954.50;5012549;28;20036;-73
2022/07/31 08:46:14;;;;;;;3.40;2.80;;;;;;;33.75;37.96;97943.19;4995413;28;20414;-74
2022/07/31 08:48:40;;;;;;;3.75;3.22;;;;;;;31.62;41.45;97943.97;4994783;28;20387;-74
2022/07/31 08:51:09;;;;;;;3.47;2.90;;;;;;;32.70;40.10;97947.63;4994816;28;20483;-74
2022/07/31 08:53:36;;;;;;;4.45;3.45;;;;;;;34.01;37.91;97952.56;5012071;28;20491;-74
2022/07/31 08:56:04;;;;;;;9.60;2.97;;;;;;;35.43;35.29;97954.44;4994611;28;20030;-74
2022/07/31 08:58:29;;;;;;;3.65;3.13;;;;;;;36.68;32.96;97954.16;5012149;28;20426;-72
2022/07/31 09:00:55;;;;;;;4.70;3.00;;;;;;;37.30;31.54;97949.88;5013217;28;20029;-73
2022/07/31 09:03:21;;;;;;;3.38;2.88;;;;;;;37.64;30.15;97948.78;5028159;28;20125;-74
2022/07/31 09:05:46;;;;;;;3.05;2.40;;;;;;;37.62;27.95;97950.53;5018665;28;20041;-73
2022/07/31 09:08:12;;;;;;;2.90;2.50;;;;;;;37.57;28.19;97949.09;5011997;28;20060;-72
2022/07/31 09:10:37;;;;;;;4.45;2.85;;;;;;;38.97;26.88;97963.69;5012478;28;20041;-74
2022/07/31 09:13:15;;;;;;;4.03;3.38;;;;;;;38.64;26.94;97939.19;5012160;28;20045;-72
2022/07/31 09:15:41;;;;;;;4.40;3.28;;;;;;;38.59;26.12;97949.25;5012219;28;20116;-73
2022/07/31 09:18:18;;;;;;;3.08;2.78;;;;;;;38.26;25.50;97939.78;5012161;28;20057;-72
2022/07/31 09:21:01;;;;;;;3.28;2.67;;;;;;;38.52;23.48;97938.94;5011892;28;20026;-74
2022/07/31 09:23:27;;;;;;;3.00;2.70;;;;;;;37.75;24.93;97923.38;5011777;28;20041;-74
2022/07/31 09:26:00;;;;;;;3.28;2.60;;;;;;;36.64;26.07;97925.78;5012256;28;20033;-73
2022/07/31 09:28:34;;;;;;;3.53;2.80;;;;;;;37.19;24.98;97914.47;5011582;28;20100;-74
2022/07/31 09:31:01;;;;;;;3.33;2.67;;;;;;;38.50;23.59;97917.81;5011899;28;20030;-73
2022/07/31 09:33:28;;;;;;;4.85;2.30;;;;;;;39.41;22.67;97923.03;4994096;28;20505;-73
2022/07/31 09:35:54;;;;;;;3.42;2.47;;;;;;;39.39;22.90;97925.56;5011566;28;20029;-72
2022/07/31 09:38:20;;;;;;;3.25;2.60;;;;;;;39.30;22.59;97917.03;5011530;28;20029;-74
2022/07/31 09:40:45;;;;;;;4.70;2.40;;;;;;;39.87;22.08;97917.66;5011688;28;20079;-73
2022/07/31 09:43:18;;;;;;;4.72;2.42;;;;;;;39.89;20.20;97926.56;5011906;28;20026;-72
2022/07/31 09:46:02;;;;;;;3.33;2.63;;;;;;;38.80;20.91;97910.22;5011584;28;20037;-73
2022/07/31 09:48:28;;;;;;;3.08;2.72;;;;;;;38.63;21.05;97904.06;4994693;28;20041;-73
2022/07/31 09:51:06;;;;;;;2.88;2.40;;;;;;;38.75;20.64;97905.91;5011543;28;20212;-73
2022/07/31 09:53:46;;;;;;;3.40;2.53;;;;;;;39.86;20.16;97907.47;5011421;28;20026;-74
2022/07/31 09:56:13;;;;;;;2.78;2.35;;;;;;;41.30;18.58;97903.22;5011304;28;20033;-73
2022/07/31 09:58:40;;;;;;;2.90;2.55;;;;;;;39.86;19.37;97904.63;5011394;28;20037;-73
2022/07/31 10:01:08;;;;;;;4.43;3.00;;;;;;;39.47;20.13;97893.16;5011442;28;20030;-73
2022/07/31 10:03:36;;;;;;;3.65;3.15;;;;;;;37.48;22.06;97884.22;5011225;28;20022;-72
2022/07/31 10:06:04;;;;;;;3.45;3.00;;;;;;;35.61;24.04;97868.41;5011158;28;20026;-72
2022/07/31 10:08:33;;;;;;;5.88;3.25;;;;;;;37.15;22.62;97879.63;5011027;28;20042;-73
2022/07/31 10:11:01;;;;;;;3.38;3.05;;;;;;;37.91;21.83;97871.63;5011294;28;20566;-73
2022/07/31 10:13:27;;;;;;;4.47;2.75;;;;;;;39.36;20.41;97890.09;5011285;28;20464;-73
2022/07/31 10:15:55;;;;;;;3.50;2.78;;;;;;;39.42;18.34;97885.28;5011022;28;20131;-72
2022/07/31 10:18:23;;;;;;;3.17;2.75;;;;;;;37.90;18.96;97866.38;5010853;28;20026;-73
2022/07/31 10:20:53;;;;;;;3.38;2.85;;;;;;;37.85;19.90;97867.81;5010929;28;20033;-72
2022/07/31 10:23:24;;;;;;;3.47;2.85;;;;;;;36.41;21.82;97860.72;5010663;28;20025;-72
2022/07/31 10:25:53;;;;;;;3.25;2.83;;;;;;;34.63;24.76;97862.13;5010799;28;20026;-73
2022/07/31 10:28:20;;;;;;;3.78;2.80;;;;;;;34.21;26.32;97858.66;5010290;28;20517;-73
2022/07/31 10:30:46;;;;;;;6.40;3.00;;;;;;;33.31;27.96;97853.25;4993266;28;20076;-72
2022/07/31 10:33:12;;;;;;;3.40;2.85;;;;;;;34.53;26.57;97852.69;5010788;28;20033;-72
2022/07/31 10:35:43;;;;;;;3.40;2.88;;;;;;;35.55;24.79;97859.63;5010620;28;20038;-73
2022/07/31 10:38:19;;;;;;;3.45;2.67;;;;;;;37.24;23.02;97859.63;5010650;28;20061;-75
2022/07/31 10:40:54;;;;;;;3.53;2.80;;;;;;;36.27;23.99;97861.31;5010632;28;20384;-73
2022/07/31 10:43:29;;;;;;;3.58;2.70;;;;;;;35.93;24.10;97851.63;5010681;28;20036;-74
2022/07/31 10:45:55;;;;;;;3.05;2.63;;;;;;;34.37;25.39;97861.34;5010527;28;20112;-74
2022/07/31 10:48:22;;;;;;;3.20;2.88;;;;;;;33.23;26.42;97849.84;5010212;28;20030;-73
2022/07/31 10:50:59;;;;;;;4.15;2.88;;;;;;;32.82;27.67;97855.41;5010514;28;20018;-73
2022/07/31 10:53:24;;;;;;;3.30;2.90;;;;;;;32.57;26.67;97850.41;5010197;28;20022;-73
2022/07/31 10:55:59;;;;;;;7.00;2.90;;;;;;;33.64;26.34;97851.91;5010299;28;20570;-73
2022/07/31 10:58:24;;;;;;;3.50;2.97;;;;;;;33.44;26.62;97851.25;4992755;28;20056;-74
2022/07/31 11:01:10;;;;;;;3.00;2.70;;;;;;;33.16;26.66;97844.34;5010561;28;20069;-73
2022/07/31 11:03:40;;;;;;;3.15;2.78;;;;;;;32.32;27.69;97839.69;5010307;28;20502;-73
2022/07/31 11:06:07;;;;;;;4.03;2.85;;;;;;;31.50;29.01;97837.13;5010263;28;20033;-74
2022/07/31 11:08:43;;;;;;;3.88;2.47;;;;;;;29.82;31.25;97822.81;5010860;28;20037;-74
2022/07/31 11:11:09;;;;;;;3.03;2.70;;;;;;;30.21;30.85;97833.47;5010609;28;20102;-74
2022/07/31 11:13:54;;;;;;;3.10;2.70;;;;;;;30.48;30.92;97822.94;5011044;28;20057;-78
2022/07/31 11:16:19;;;;;;;3.45;2.80;;;;;;;31.20;29.74;97821.16;5011134;28;20025;-75
2022/07/31 11:18:56;;;;;;;3.45;2.70;;;;;;;31.86;29.67;97822.19;5015248;28;20437;-74
2022/07/31 11:21:33;;;;;;;2.97;2.60;;;;;;;32.25;28.56;97817.19;5012928;28;20084;-73
2022/07/31 11:23:59;;;;;;;3.03;2.47;;;;;;;32.33;28.09;97820.63;4993025;28;20050;-74
2022/07/31 11:26:24;;;;;;;4.50;2.50;;;;;;;32.04;28.98;97817.72;5010277;28;20053;-74